createdAt,value
2023-02-27T00:01:44.998Z,-1.52
2023-02-27T00:04:11.470Z,-1.58
2023-02-27T00:06:37.951Z,-1.58
2023-02-27T00:09:04.522Z,-1.58
2023-02-27T00:11:31.016Z,-1.61
2023-02-27T00:13:58.392Z,-1.66
2023-02-27T00:16:25.029Z,-1.62
2023-02-27T00:18:51.552Z,-1.63
2023-02-27T00:21:17.972Z,-1.78
2023-02-27T00:23:44.425Z,-1.85
2023-02-27T00:26:10.832Z,-1.79
2023-02-27T00:28:37.443Z,-1.86
2023-02-27T00:31:04.961Z,-2.05
2023-02-27T00:33:31.469Z,-2.15
2023-02-27T00:35:59.663Z,-2.07
2023-02-27T00:38:28.864Z,-2.12
2023-02-27T00:40:55.302Z,-2.18
2023-02-27T00:43:21.813Z,-2.18
2023-02-27T00:45:49.012Z,-2.15
2023-02-27T00:48:16.014Z,-2.20
2023-02-27T00:50:43.030Z,-2.12
2023-02-27T00:53:09.488Z,-2.17
2023-02-27T00:55:36.308Z,-2.11
2023-02-27T00:58:02.951Z,-2.17
2023-02-27T01:00:29.974Z,-2.10
2023-02-27T01:02:56.519Z,-2.16
2023-02-27T01:05:22.981Z,-2.11
2023-02-27T01:07:49.734Z,-2.19
2023-02-27T01:10:16.687Z,-2.30
2023-02-27T01:12:43.468Z,-2.29
2023-02-27T01:15:11.088Z,-2.21
2023-02-27T01:17:37.885Z,-2.24
2023-02-27T01:20:06.699Z,-2.20
2023-02-27T01:22:33.376Z,-2.14
2023-02-27T01:25:00.456Z,-2.14
2023-02-27T01:27:27.492Z,-2.14
2023-02-27T01:29:53.922Z,-2.12
2023-02-27T01:32:20.799Z,-2.20
2023-02-27T01:34:47.508Z,-2.10
2023-02-27T01:37:14.128Z,-2.19
2023-02-27T01:39:40.569Z,-2.34
2023-02-27T01:42:19.389Z,-2.51
2023-02-27T01:45:10.874Z,-2.55
2023-02-27T01:47:41.777Z,-2.46
2023-02-27T01:50:10.346Z,-2.46
2023-02-27T01:52:38.728Z,-2.40
2023-02-27T01:55:08.620Z,-2.44
2023-02-27T01:57:36.131Z,-2.28
2023-02-27T02:00:06.385Z,-2.21
2023-02-27T02:02:42.304Z,-2.13
2023-02-27T02:05:09.913Z,-2.11
2023-02-27T02:07:41.163Z,-2.08
2023-02-27T02:10:08.544Z,-2.01
2023-02-27T02:12:38.049Z,-1.95
2023-02-27T02:15:06.217Z,-2.04
2023-02-27T02:17:35.746Z,-1.93
2023-02-27T02:20:24.854Z,-1.92
2023-02-27T02:23:36.602Z,-1.92
2023-02-27T02:30:08.385Z,-1.94
2023-02-27T02:33:12.217Z,-1.87
2023-02-27T02:35:53.854Z,-1.89
2023-02-27T02:38:29.362Z,-1.92
2023-02-27T02:41:07.695Z,-1.81
2023-02-27T02:43:45.592Z,-1.79
2023-02-27T02:46:39.032Z,-1.74
2023-02-27T02:49:37.408Z,-1.65
2023-02-27T02:52:27.915Z,-1.55
2023-02-27T02:54:58.169Z,-1.65
2023-02-27T02:57:32.946Z,-1.62
2023-02-27T03:00:09.484Z,-1.44
2023-02-27T03:02:42.385Z,-1.57
2023-02-27T03:05:12.568Z,-1.50
2023-02-27T03:07:47.994Z,-1.52
2023-02-27T03:10:50.641Z,-1.50
2023-02-27T03:13:46.518Z,-1.45
2023-02-27T03:16:17.960Z,-1.43
2023-02-27T03:18:56.669Z,-1.43
2023-02-27T03:21:33.559Z,-1.47
2023-02-27T03:24:03.437Z,-1.35
2023-02-27T03:26:35.310Z,-1.33
2023-02-27T03:29:06.650Z,-1.29
2023-02-27T03:31:45.041Z,-1.28
2023-02-27T03:34:21.200Z,-1.28
2023-02-27T03:36:54.645Z,-1.27
2023-02-27T03:39:58.894Z,-1.18
2023-02-27T03:42:45.086Z,-1.11
2023-02-27T03:45:35.042Z,-1.10
2023-02-27T03:48:04.058Z,-1.13
2023-02-27T03:50:30.748Z,-1.08
2023-02-27T03:52:57.451Z,-1.04
2023-02-27T03:55:33.292Z,-1.06
2023-02-27T03:58:00.551Z,-1.01
2023-02-27T04:00:29.144Z,-1.05
2023-02-27T04:02:59.580Z,-1.06
2023-02-27T04:05:27.746Z,-1.05
2023-02-27T04:08:30.757Z,-0.93
2023-02-27T04:11:12.481Z,-1.01
2023-02-27T04:13:44.888Z,-0.99
2023-02-27T04:16:34.179Z,-0.83
2023-02-27T04:19:22.330Z,-1.03
2023-02-27T04:22:01.471Z,-0.95
2023-02-27T04:24:57.409Z,-0.97
2023-02-27T04:27:43.033Z,-0.89
2023-02-27T04:30:24.812Z,-0.99
2023-02-27T04:32:59.964Z,-0.97
2023-02-27T04:35:35.018Z,-0.96
2023-02-27T04:38:16.487Z,-0.91
2023-02-27T04:40:50.144Z,-0.91
2023-02-27T04:43:18.238Z,-0.89
2023-02-27T04:45:46.537Z,-0.91
2023-02-27T04:48:22.644Z,-0.90
2023-02-27T04:50:57.392Z,-0.86
2023-02-27T04:53:28.711Z,-0.82
2023-02-27T04:56:08.330Z,-0.81
2023-02-27T04:58:39.005Z,-0.75
2023-02-27T05:01:14.299Z,-0.78
2023-02-27T05:03:46.072Z,-0.73
2023-02-27T05:06:15.501Z,-0.73
2023-02-27T05:08:49.213Z,-0.73
2023-02-27T05:11:23.765Z,-0.77
2023-02-27T05:14:02.620Z,-0.68
2023-02-27T05:16:52.455Z,-0.73
2023-02-27T05:19:20.774Z,-0.76
2023-02-27T05:21:51.115Z,-0.71
2023-02-27T05:24:36.471Z,-0.74
2023-02-27T05:27:30.250Z,-0.81
2023-02-27T05:30:12.537Z,-0.85
2023-02-27T05:32:53.397Z,-0.76
2023-02-27T05:35:31.432Z,-0.76
2023-02-27T05:38:10.041Z,-0.76
2023-02-27T05:40:47.322Z,-0.68
2023-02-27T05:43:21.676Z,-0.71
2023-02-27T05:45:51.161Z,-0.70
2023-02-27T05:48:24.191Z,-0.64
2023-02-27T05:50:53.594Z,-0.67
2023-02-27T05:53:22.260Z,-0.69
2023-02-27T05:55:52.610Z,-0.76
2023-02-27T05:58:24.773Z,-0.78
2023-02-27T06:00:56.976Z,-0.78
2023-02-27T06:03:23.617Z,-0.85
2023-02-27T06:05:54.965Z,-0.86
2023-02-27T06:08:21.951Z,-0.91
2023-02-27T06:10:49.890Z,-0.95
2023-02-27T06:13:17.181Z,-0.97
2023-02-27T06:15:44.709Z,-1.01
2023-02-27T06:18:12.339Z,-1.10
2023-02-27T06:20:39.836Z,-1.06
2023-02-27T06:23:06.703Z,-1.05
2023-02-27T06:25:33.660Z,-1.06
2023-02-27T06:28:00.201Z,-1.06
2023-02-27T06:30:26.707Z,-1.17
2023-02-27T06:32:53.347Z,-1.04
2023-02-27T06:35:19.845Z,-1.20
2023-02-27T06:37:46.670Z,-1.29
2023-02-27T06:40:14.199Z,-1.34
2023-02-27T06:42:45.184Z,-1.50
2023-02-27T06:45:14.147Z,-1.59
2023-02-27T06:47:41.732Z,-1.61
2023-02-27T06:50:11.278Z,-1.52
2023-02-27T06:52:39.238Z,-1.49
2023-02-27T06:55:07.986Z,-1.43
2023-02-27T06:57:34.673Z,-1.36
2023-02-27T07:00:01.310Z,-1.32
2023-02-27T07:02:27.769Z,-1.20
2023-02-27T07:04:54.257Z,-1.13
2023-02-27T07:07:34.898Z,-1.10
2023-02-27T07:10:03.759Z,-1.04
2023-02-27T07:12:30.240Z,-0.97
2023-02-27T07:14:56.697Z,-0.90
2023-02-27T07:17:23.204Z,-0.78
2023-02-27T07:19:49.667Z,-0.63
2023-02-27T07:22:16.084Z,-0.46
2023-02-27T07:24:42.579Z,-0.41
2023-02-27T07:27:09.039Z,-0.29
2023-02-27T07:29:36.054Z,-0.22
2023-02-27T07:32:02.934Z,-0.20
2023-02-27T07:34:41.846Z,-0.05
2023-02-27T07:37:08.362Z,0.07
2023-02-27T07:39:34.904Z,0.10
2023-02-27T07:42:01.394Z,0.13
2023-02-27T07:44:28.187Z,0.29
2023-02-27T07:46:54.631Z,0.28
2023-02-27T07:49:21.154Z,0.32
2023-02-27T07:51:47.650Z,0.41
2023-02-27T07:54:14.126Z,0.52
2023-02-27T07:56:40.654Z,0.49
2023-02-27T07:59:07.274Z,0.57
2023-02-27T08:01:33.778Z,0.73
2023-02-27T08:04:00.201Z,0.88
2023-02-27T08:06:27.090Z,0.99
2023-02-27T08:08:54.034Z,1.04
2023-02-27T08:11:20.559Z,1.19
2023-02-27T08:14:02.890Z,1.31
2023-02-27T08:16:31.439Z,1.35
2023-02-27T08:18:58.627Z,1.46
2023-02-27T08:21:27.163Z,1.42
2023-02-27T08:23:54.469Z,1.65
2023-02-27T08:26:21.435Z,1.75
2023-02-27T08:28:47.873Z,1.76
2023-02-27T08:31:14.517Z,1.67
2023-02-27T08:33:40.994Z,1.89
2023-02-27T08:36:08.120Z,1.83
2023-02-27T08:38:34.626Z,2.04
2023-02-27T08:41:01.096Z,2.12
2023-02-27T08:43:27.585Z,2.14
2023-02-27T08:45:54.401Z,2.13
2023-02-27T08:48:21.363Z,2.14
2023-02-27T08:50:47.962Z,2.27
2023-02-27T08:53:14.766Z,2.31
2023-02-27T08:55:42.514Z,2.33
2023-02-27T08:58:10.212Z,2.34
2023-02-27T09:00:36.758Z,2.43
2023-02-27T09:03:03.362Z,2.31
2023-02-27T09:05:29.982Z,2.32
2023-02-27T09:07:56.460Z,2.41
2023-02-27T09:10:22.962Z,2.51
2023-02-27T09:12:49.455Z,2.55
2023-02-27T09:15:16.473Z,2.56
2023-02-27T09:17:42.987Z,2.58
2023-02-27T09:20:10.790Z,2.46
2023-02-27T09:22:37.736Z,2.72
2023-02-27T09:25:04.953Z,2.96
2023-02-27T09:27:31.383Z,3.28
2023-02-27T09:29:58.316Z,3.30
2023-02-27T09:32:26.636Z,3.47
2023-02-27T09:34:53.807Z,3.58
2023-02-27T09:37:20.315Z,3.66
2023-02-27T09:39:47.616Z,3.46
2023-02-27T09:42:30.185Z,3.54
2023-02-27T09:45:02.935Z,3.41
2023-02-27T09:47:39.467Z,3.77
2023-02-27T09:50:19.991Z,3.65
2023-02-27T09:52:46.636Z,3.53
2023-02-27T09:55:19.398Z,3.41
2023-02-27T09:57:58.117Z,3.51
2023-02-27T10:00:33.718Z,3.63
2023-02-27T10:03:43.303Z,3.65
2023-02-27T10:06:24.972Z,3.65
2023-02-27T10:08:57.034Z,3.98
2023-02-27T10:11:38.594Z,4.18
2023-02-27T10:14:05.019Z,4.62
2023-02-27T10:16:34.166Z,4.72
2023-02-27T10:19:06.966Z,4.57
2023-02-27T10:21:38.410Z,4.72
2023-02-27T10:24:27.661Z,4.98
2023-02-27T10:26:57.081Z,5.10
2023-02-27T10:29:33.041Z,5.47
2023-02-27T10:32:07.045Z,5.64
2023-02-27T10:34:35.440Z,5.87
2023-02-27T10:37:05.200Z,5.83
2023-02-27T10:39:42.832Z,6.44
2023-02-27T10:42:12.404Z,6.47
2023-02-27T10:44:38.915Z,6.17
2023-02-27T10:47:05.361Z,5.82
2023-02-27T10:49:33.738Z,5.66
2023-02-27T10:52:12.833Z,5.01
2023-02-27T10:54:40.678Z,5.08
2023-02-27T10:57:30.555Z,5.07
2023-02-27T11:00:05.865Z,5.00
2023-02-27T11:02:39.928Z,5.33
2023-02-27T11:05:18.533Z,5.31
2023-02-27T11:07:45.338Z,5.32
2023-02-27T11:10:14.363Z,5.21
2023-02-27T11:12:42.727Z,6.01
2023-02-27T11:15:15.249Z,6.87
2023-02-27T11:17:43.262Z,7.17
2023-02-27T11:20:35.914Z,6.74
2023-02-27T11:23:06.428Z,6.91
2023-02-27T11:25:35.641Z,7.38
2023-02-27T11:28:14.469Z,7.22
2023-02-27T11:30:42.676Z,7.09
2023-02-27T11:33:19.998Z,6.83
2023-02-27T11:35:52.071Z,6.24
2023-02-27T11:38:27.189Z,5.86
2023-02-27T11:40:56.387Z,5.66
2023-02-27T11:43:50.858Z,5.31
2023-02-27T11:46:45.746Z,5.07
2023-02-27T11:49:24.792Z,5.13
2023-02-27T11:52:21.003Z,5.13
2023-02-27T11:55:14.531Z,5.20
2023-02-27T11:57:44.103Z,5.22
2023-02-27T12:00:22.463Z,4.99
2023-02-27T12:03:10.373Z,4.95
2023-02-27T12:05:46.612Z,4.88
2023-02-27T12:08:44.032Z,4.72
2023-02-27T12:11:28.144Z,4.90
2023-02-27T12:14:08.794Z,4.76
2023-02-27T12:16:46.511Z,4.77
2023-02-27T12:19:21.378Z,4.64
2023-02-27T12:21:52.143Z,4.66
2023-02-27T12:24:24.406Z,4.74
2023-02-27T12:27:25.667Z,4.85
2023-02-27T12:30:02.445Z,4.79
2023-02-27T12:32:45.664Z,4.67
2023-02-27T12:35:29.822Z,4.57
2023-02-27T12:37:57.512Z,4.45
2023-02-27T12:40:51.188Z,4.31
2023-02-27T12:43:43.204Z,4.20
2023-02-27T12:46:38.474Z,4.15
2023-02-27T12:49:15.921Z,4.03
2023-02-27T12:51:57.452Z,4.09
2023-02-27T12:54:23.793Z,4.25
2023-02-27T12:57:13.007Z,4.31
2023-02-27T13:00:08.239Z,4.47
2023-02-27T13:02:58.969Z,4.55
2023-02-27T13:05:37.375Z,4.56
2023-02-27T13:08:13.739Z,4.86
2023-02-27T13:10:48.942Z,5.66
2023-02-27T13:13:36.981Z,5.61
2023-02-27T13:16:12.082Z,6.22
2023-02-27T13:18:46.904Z,5.79
2023-02-27T13:21:25.208Z,5.34
2023-02-27T13:24:12.218Z,5.30
2023-02-27T13:26:44.795Z,5.22
2023-02-27T13:29:16.382Z,4.86
2023-02-27T13:32:13.396Z,4.64
2023-02-27T13:34:48.682Z,4.61
2023-02-27T13:37:15.131Z,4.65
2023-02-27T13:39:48.757Z,4.55
2023-02-27T13:42:27.234Z,4.70
2023-02-27T13:44:56.706Z,4.74
2023-02-27T13:47:29.171Z,4.67
2023-02-27T13:49:56.945Z,4.60
2023-02-27T13:52:34.801Z,4.49
2023-02-27T13:55:11.787Z,4.41
2023-02-27T13:57:39.069Z,4.26
2023-02-27T14:00:20.626Z,4.24
2023-02-27T14:03:04.713Z,4.08
2023-02-27T14:05:36.695Z,3.76
2023-02-27T14:08:12.505Z,3.56
2023-02-27T14:11:09.518Z,3.41
2023-02-27T14:13:45.009Z,3.30
2023-02-27T14:16:32.413Z,3.30
2023-02-27T14:19:00.882Z,3.37
2023-02-27T14:21:49.774Z,3.55
2023-02-27T14:24:17.959Z,3.69
2023-02-27T14:26:46.622Z,3.74
2023-02-27T14:29:23.736Z,3.73
2023-02-27T14:31:52.015Z,3.75
2023-02-27T14:34:21.690Z,3.70
2023-02-27T14:36:54.585Z,3.71
2023-02-27T14:39:27.086Z,3.71
2023-02-27T14:41:59.905Z,3.77
2023-02-27T14:44:36.364Z,3.75
2023-02-27T14:47:03.978Z,3.76
2023-02-27T14:49:33.301Z,3.74
2023-02-27T14:52:25.609Z,3.85
2023-02-27T14:54:53.508Z,3.84
2023-02-27T14:57:27.064Z,3.84
2023-02-27T14:59:54.645Z,3.84
2023-02-27T15:02:25.530Z,3.82
2023-02-27T15:05:13.952Z,3.72
2023-02-27T15:07:44.214Z,3.62
2023-02-27T15:10:20.401Z,3.64
2023-02-27T15:12:47.561Z,3.50
2023-02-27T15:15:20.095Z,3.45
2023-02-27T15:17:47.471Z,3.44
2023-02-27T15:20:25.185Z,3.48
2023-02-27T15:22:51.748Z,3.54
2023-02-27T15:25:34.032Z,3.57
2023-02-27T15:28:15.773Z,3.54
2023-02-27T15:30:42.371Z,3.53
2023-02-27T15:33:16.326Z,3.44
2023-02-27T15:35:45.658Z,3.29
2023-02-27T15:38:30.567Z,3.32
2023-02-27T15:40:59.353Z,3.33
2023-02-27T15:43:28.149Z,3.40
2023-02-27T15:45:56.212Z,3.38
2023-02-27T15:48:23.127Z,3.32
2023-02-27T15:50:55.520Z,2.87
2023-02-27T15:53:24.634Z,2.62
2023-02-27T15:56:04.308Z,2.51
2023-02-27T15:58:37.611Z,2.40
2023-02-27T16:01:18.035Z,2.44
2023-02-27T16:03:48.103Z,2.40
2023-02-27T16:06:23.857Z,2.34
2023-02-27T16:09:01.317Z,2.34
2023-02-27T16:11:30.913Z,2.39
2023-02-27T16:13:57.917Z,2.42
2023-02-27T16:16:35.962Z,2.50
2023-02-27T16:19:20.571Z,2.59
2023-02-27T16:22:12.566Z,2.67
2023-02-27T16:24:39.154Z,2.69
2023-02-27T16:27:06.061Z,2.70
2023-02-27T16:29:42.956Z,2.68
2023-02-27T16:32:30.353Z,2.62
2023-02-27T16:35:18.764Z,2.60
2023-02-27T16:37:46.225Z,2.52
2023-02-27T16:40:22.432Z,2.52
2023-02-27T16:42:50.194Z,2.44
2023-02-27T16:45:17.763Z,2.40
2023-02-27T16:47:48.529Z,2.43
2023-02-27T16:50:39.453Z,2.40
2023-02-27T16:53:06.376Z,2.32
2023-02-27T16:55:33.843Z,2.20
2023-02-27T16:58:00.713Z,2.15
2023-02-27T17:00:28.322Z,2.03
2023-02-27T17:02:55.230Z,2.05
2023-02-27T17:05:22.989Z,1.92
2023-02-27T17:07:49.460Z,1.87
2023-02-27T17:10:18.018Z,1.83
2023-02-27T17:12:44.532Z,1.78
2023-02-27T17:15:11.406Z,1.68
2023-02-27T17:17:37.848Z,1.68
2023-02-27T17:20:07.325Z,1.66
2023-02-27T17:22:39.415Z,1.64
2023-02-27T17:25:06.623Z,1.63
2023-02-27T17:27:33.233Z,1.66
2023-02-27T17:29:59.923Z,1.64
2023-02-27T17:32:27.863Z,1.64
2023-02-27T17:34:55.519Z,1.66
2023-02-27T17:37:23.235Z,1.66
2023-02-27T17:39:49.778Z,1.65
2023-02-27T17:42:18.626Z,1.66
2023-02-27T17:44:46.539Z,1.62
2023-02-27T17:47:14.048Z,1.54
2023-02-27T17:49:40.677Z,1.59
2023-02-27T17:52:07.277Z,1.62
2023-02-27T17:54:34.924Z,1.62
2023-02-27T17:57:01.638Z,1.53
2023-02-27T17:59:28.140Z,1.49
2023-02-27T18:01:55.641Z,1.51
2023-02-27T18:04:22.143Z,1.49
2023-02-27T18:06:50.563Z,1.43
2023-02-27T18:09:17.828Z,1.50
2023-02-27T18:11:44.354Z,1.41
2023-02-27T18:14:11.020Z,1.38
2023-02-27T18:16:37.794Z,1.37
2023-02-27T18:19:06.025Z,1.36
2023-02-27T18:21:33.574Z,1.39
2023-02-27T18:24:00.272Z,1.39
2023-02-27T18:26:31.110Z,1.37
2023-02-27T18:29:00.268Z,1.34
2023-02-27T18:31:30.488Z,1.31
2023-02-27T18:33:57.136Z,1.30
2023-02-27T18:36:23.742Z,1.30
2023-02-27T18:38:50.175Z,1.30
2023-02-27T18:41:16.827Z,1.34
2023-02-27T18:43:43.763Z,1.34
2023-02-27T18:46:12.719Z,1.32
2023-02-27T18:48:40.426Z,1.28
2023-02-27T18:51:12.127Z,1.26
2023-02-27T18:53:39.990Z,1.26
2023-02-27T18:56:08.782Z,1.21
2023-02-27T18:58:35.897Z,1.16
2023-02-27T19:01:04.003Z,1.16
2023-02-27T19:03:31.689Z,1.11
2023-02-27T19:05:58.378Z,1.07
2023-02-27T19:08:28.995Z,1.02
2023-02-27T19:10:56.514Z,0.95
2023-02-27T19:13:23.223Z,0.95
2023-02-27T19:15:50.035Z,0.97
2023-02-27T19:18:16.966Z,0.97
2023-02-27T19:20:43.376Z,0.99
2023-02-27T19:23:09.811Z,1.06
2023-02-27T19:25:36.250Z,1.10
2023-02-27T19:28:02.909Z,1.07
2023-02-27T19:30:29.425Z,1.09
2023-02-27T19:32:56.024Z,1.07
2023-02-27T19:35:22.926Z,1.05
2023-02-27T19:37:55.100Z,1.10
2023-02-27T19:40:22.334Z,1.04
2023-02-27T19:42:49.202Z,1.03
2023-02-27T19:45:15.942Z,1.09
2023-02-27T19:47:42.570Z,1.02
2023-02-27T19:50:09.853Z,1.03
2023-02-27T19:52:37.495Z,1.03
2023-02-27T19:55:04.540Z,1.00
2023-02-27T19:57:31.193Z,1.00
2023-02-27T19:59:57.663Z,0.95
2023-02-27T20:02:24.432Z,0.91
2023-02-27T20:04:50.958Z,0.87
2023-02-27T20:07:18.919Z,0.81
2023-02-27T20:09:45.391Z,0.78
2023-02-27T20:12:11.932Z,0.77
2023-02-27T20:14:38.436Z,0.73
2023-02-27T20:17:04.869Z,0.66
2023-02-27T20:19:31.342Z,0.67
2023-02-27T20:21:57.808Z,0.62
2023-02-27T20:24:25.312Z,0.67
2023-02-27T20:26:55.009Z,0.66
2023-02-27T20:29:23.362Z,0.60
2023-02-27T20:31:51.512Z,0.61
2023-02-27T20:34:25.744Z,0.60
2023-02-27T20:36:54.481Z,0.60
2023-02-27T20:39:21.706Z,0.58
2023-02-27T20:41:48.964Z,0.56
2023-02-27T20:44:15.731Z,0.59
2023-02-27T20:46:43.564Z,0.60
2023-02-27T20:49:12.196Z,0.59
2023-02-27T20:51:39.523Z,0.59
2023-02-27T20:54:09.066Z,0.60
2023-02-27T20:56:38.162Z,0.58
2023-02-27T20:59:06.573Z,0.61
2023-02-27T21:01:33.604Z,0.61
2023-02-27T21:04:00.458Z,0.64
2023-02-27T21:06:27.170Z,0.61
2023-02-27T21:08:55.998Z,0.65
2023-02-27T21:11:27.972Z,0.60
2023-02-27T21:13:59.374Z,0.55
2023-02-27T21:16:26.042Z,0.53
2023-02-27T21:18:54.002Z,0.52
2023-02-27T21:21:24.060Z,0.54
2023-02-27T21:23:50.896Z,0.58
2023-02-27T21:26:18.939Z,0.64
2023-02-27T21:28:50.302Z,0.64
2023-02-27T21:31:18.676Z,0.67
2023-02-27T21:33:45.159Z,0.66
2023-02-27T21:36:11.783Z,0.70
2023-02-27T21:38:38.893Z,0.71
2023-02-27T21:41:11.761Z,0.74
2023-02-27T21:43:40.422Z,0.74
2023-02-27T21:46:11.881Z,0.75
2023-02-27T21:48:39.286Z,0.76
2023-02-27T21:51:06.906Z,0.76
2023-02-27T21:53:33.518Z,0.78
2023-02-27T21:56:05.234Z,0.78
2023-02-27T21:58:32.498Z,0.78
2023-02-27T22:00:59.308Z,0.76
2023-02-27T22:03:34.317Z,0.77
2023-02-27T22:06:01.751Z,0.72
2023-02-27T22:08:29.069Z,0.70
2023-02-27T22:10:58.977Z,0.67
2023-02-27T22:13:26.510Z,0.64
2023-02-27T22:15:53.599Z,0.68
2023-02-27T22:18:20.624Z,0.69
2023-02-27T22:20:47.367Z,0.71
2023-02-27T22:23:13.961Z,0.67
2023-02-27T22:25:41.159Z,0.70
2023-02-27T22:28:07.610Z,0.64
2023-02-27T22:30:34.421Z,0.67
2023-02-27T22:33:00.857Z,0.65
2023-02-27T22:35:27.497Z,0.63
2023-02-27T22:37:54.635Z,0.63
2023-02-27T22:40:21.257Z,0.61
2023-02-27T22:42:50.832Z,0.63
2023-02-27T22:45:17.297Z,0.67
2023-02-27T22:47:43.784Z,0.69
2023-02-27T22:50:10.885Z,0.66
2023-02-27T22:52:37.485Z,0.65
2023-02-27T22:55:04.217Z,0.59
2023-02-27T22:57:30.656Z,0.54
2023-02-27T22:59:57.181Z,0.48
2023-02-27T23:02:23.624Z,0.40
2023-02-27T23:04:50.058Z,0.43
2023-02-27T23:07:16.560Z,0.45
2023-02-27T23:09:43.831Z,0.46
2023-02-27T23:12:10.311Z,0.51
2023-02-27T23:14:36.745Z,0.47
2023-02-27T23:17:03.220Z,0.51
2023-02-27T23:19:29.967Z,0.53
2023-02-27T23:21:56.411Z,0.56
2023-02-27T23:24:22.848Z,0.66
2023-02-27T23:26:51.808Z,0.67
2023-02-27T23:29:18.567Z,0.65
2023-02-27T23:31:45.324Z,0.65
2023-02-27T23:34:12.275Z,0.60
2023-02-27T23:36:41.797Z,0.55
2023-02-27T23:39:08.964Z,0.61
2023-02-27T23:41:35.665Z,0.64
2023-02-27T23:44:02.472Z,0.65
2023-02-27T23:46:30.451Z,0.65
2023-02-27T23:49:01.017Z,0.69
2023-02-27T23:51:30.251Z,0.74
2023-02-27T23:53:57.745Z,0.74
2023-02-27T23:56:26.980Z,0.71
2023-02-27T23:58:59.804Z,0.67
